Latest Weather Observations for Trangie

IDN60801

Issued at 12:05 pm EST Wednesday 3 September 2014 (issued every 30 minutes, with the page automatically refreshed every 10 minutes)

About weather observations | Map of weather stations | Latest weather observations for NSW | Other Formats
Station Details ID: 051049 Name: TRANGIE RESEARCH STATION AWS Lat: -31.99 Lon: 147.95 Height: 215.0 m
Data from the previous 72 hours. | See also: Recent months at Trangie
Date/Time
EST
Temp
°C
App
Temp
°C
Dew
Point
Rel
Hum
%
Delta-T
°C
Wind Press
QNH
hPa
Press
MSL
hPa
Rain
since 9 am
mm
Dir
 
Spd
km/h
Gust
km/h
Spd
kts
Gust
kts
03/12:00pm 13.7 7.1 -0.3 38 5.9 SSW 24 35 13 19 1018.5 1018.4 0.0
03/11:30am 13.2 6.8 1.2 44 5.2 SSW 24 35 13 19 1019.1 - 0.0
03/11:00am 12.8 7.5 3.2 52 4.3 SSW 20 35 11 19 1019.5 - 0.0
03/10:30am 11.9 6.7 3.4 56 3.8 SSW 20 30 11 16 1019.7 - 0.0
03/10:00am 11.2 5.6 3.5 59 3.4 S 22 35 12 19 1020.1 - 0.0
03/09:30am 10.1 4.4 2.9 61 3.1 S 22 32 12 17 1020.0 - 0.0
03/09:00am 8.8 3.1 2.8 66 2.6 SSW 22 32 12 17 1020.0 1019.9 0.2
03/08:30am 7.7 2.4 3.0 72 2.0 SSW 20 32 11 17 1020.0 - 0.2
03/08:00am 6.3 1.2 3.1 80 1.4 SSW 19 26 10 14 1020.0 - 0.2
03/07:30am 4.9 0.1 2.8 86 0.9 SSW 17 24 9 13 1019.7 - 0.2
03/07:00am 3.4 -1.1 2.2 92 0.5 SSW 15 19 8 10 1019.4 - 0.2
03/06:30am 2.7 -1.5 1.7 93 0.4 SSW 13 17 7 9 1019.2 - 0.2
03/06:00am 2.1 -1.8 1.1 93 0.4 SW 11 15 6 8 1019.0 1018.9 0.2
03/05:30am 3.2 -1.3 2.0 92 0.5 SW 15 19 8 10 1019.0 - 0.2
03/05:00am 3.8 -0.6 2.5 91 0.5 SW 15 20 8 11 1018.5 - 0.2
03/04:30am 4.3 -0.1 2.7 89 0.7 SSW 15 20 8 11 1018.0 - 0.2
03/04:00am 5.0 0.6 2.9 86 0.9 SSW 15 20 8 11 1017.9 - 0.2
03/03:30am 5.1 0.8 3.0 86 0.9 SW 15 20 8 11 1017.6 - 0.2
03/03:00am 6.0 0.9 3.3 83 1.1 SSW 19 24 10 13 1017.5 1017.5 0.2
03/02:30am 6.0 1.0 3.5 84 1.1 SW 19 26 10 14 1017.7 - 0.2
03/02:00am 5.1 0.9 3.9 92 0.5 WSW 15 20 8 11 1018.1 - 0.2
03/01:30am 4.6 0.3 3.3 91 0.5 WSW 15 19 8 10 1018.5 - 0.2
03/01:00am 3.8 -0.3 2.5 91 0.5 WSW 13 15 7 8 1018.5 - 0.2
03/12:30am 3.6 -0.5 2.3 91 0.5 SW 13 15 7 8 1018.5 - 0.2
03/12:00am 3.2 -0.3 1.4 88 0.7 WSW 9 13 5 7 1018.5 1018.4 0.2
 
Date/Time
EST
Temp
°C
App
Temp
°C
Dew
Point
Rel
Hum
%
Delta-T
°C
Wind Press
QNH
hPa
Press
MSL
hPa
Rain
since 9 am
mm
Dir
 
Spd
km/h
Gust
km/h
Spd
kts
Gust
kts
02/11:30pm 5.2 2.4 3.1 86 0.9 SW 7 7 4 4 1018.6 - 0.2
02/11:00pm 5.0 2.0 2.0 81 1.2 WSW 7 9 4 5 1018.4 - 0.2
02/10:30pm 7.0 3.4 3.1 76 1.7 SW 11 15 6 8 1018.4 - 0.2
02/10:00pm 7.1 2.8 3.3 77 1.6 WSW 15 19 8 10 1018.4 - 0.2
02/09:30pm 7.8 3.1 3.3 73 1.9 WSW 17 19 9 10 1018.0 - 0.2
02/09:00pm 9.7 4.6 3.2 64 2.8 WSW 19 24 10 13 1018.0 1018.0 0.2
02/08:30pm 10.1 4.8 2.9 61 3.1 WSW 20 26 11 14 1017.8 - 0.2
02/08:00pm 11.1 5.0 2.9 57 3.6 WSW 24 32 13 17 1017.5 - 0.2
02/07:30pm 11.4 5.3 2.9 56 3.7 WSW 24 30 13 16 1017.1 - 0.2
02/07:00pm 11.3 6.0 3.1 57 3.6 WSW 20 28 11 15 1016.6 - 0.2
02/06:30pm 12.1 6.4 2.8 53 4.1 SW 22 32 12 17 1016.2 - 0.2
02/06:00pm 13.0 7.2 2.3 48 4.7 WSW 22 30 12 16 1015.9 1015.8 0.2
02/05:30pm 13.9 6.4 1.5 43 5.4 SW 30 39 16 21 1015.6 - 0.2
02/05:06pm 14.7 7.2 1.3 40 5.9 SW 30 48 16 26 1015.3 - 0.0
02/05:00pm 14.9 7.1 1.4 40 5.9 SW 32 46 17 25 1015.2 - 0.0
02/04:30pm 15.6 7.2 1.7 39 6.2 SW 35 50 19 27 1014.8 - 0.0
02/04:00pm 16.4 8.5 2.1 38 6.5 WSW 33 52 18 28 1014.6 - 0.0
02/03:30pm 16.3 8.0 2.3 39 6.4 SW 35 50 19 27 1014.4 - 0.0
02/03:00pm 16.7 7.6 4.1 43 6.0 WSW 41 52 22 28 1014.3 1014.2 0.0
02/02:54pm 16.6 7.9 4.3 44 5.8 SW 39 52 21 28 1014.3 - 0.0
02/02:32pm 15.7 9.4 5.6 51 4.9 SSW 28 50 15 27 1014.3 - 0.0
02/02:30pm 15.9 10.6 6.6 54 4.6 SSW 24 41 13 22 1014.4 - 0.0
02/02:00pm 16.6 8.3 4.3 44 5.8 SW 37 50 20 27 1014.2 - 0.0
02/01:30pm 16.1 8.8 4.5 46 5.5 SSW 32 44 17 24 1014.3 - 0.0
02/01:00pm 13.4 6.2 4.8 56 4.0 SW 32 44 17 24 1014.7 - 0.0
02/12:30pm 15.7 8.4 5.3 50 5.0 SW 33 44 18 24 1014.9 - 0.0
02/12:00pm 14.3 7.2 5.7 56 4.1 SW 32 43 17 23 1015.2 1015.1 0.0
02/11:30am 14.0 7.4 5.9 58 3.9 SW 30 46 16 25 1015.4 - 0.0
02/11:22am 14.1 8.2 7.6 65 3.2 SSW 28 46 15 25 1015.5 - 0.0
02/11:00am 14.1 7.4 7.2 63 3.4 SSW 32 46 17 25 1015.5 - 0.0
02/10:35am 12.4 5.9 6.7 68 2.8 SW 30 52 16 28 1015.5 - 0.0
02/10:30am 13.3 7.5 8.0 70 2.6 SW 28 43 15 23 1015.5 - 0.0
02/10:00am 12.3 6.4 7.6 73 2.3 SW 28 43 15 23 1015.4 - 0.0
02/09:30am 13.0 6.5 8.3 73 2.4 SW 32 39 17 21 1015.3 - 0.0
02/09:00am 11.9 5.5 8.6 80 1.7 SW 32 41 17 22 1015.2 1015.1 0.2
02/08:30am 11.9 7.0 9.8 87 1.1 SW 26 35 14 19 1014.8 - 0.2
02/08:00am 10.5 6.2 9.4 93 0.6 SW 22 30 12 16 1014.5 - 0.2
02/07:30am 10.6 6.0 9.5 93 0.6 SW 24 35 13 19 1014.1 - 0.2
02/07:00am 9.7 5.7 8.9 95 0.4 SW 20 26 11 14 1013.7 - 0.2
02/06:30am 10.2 6.8 9.3 94 0.5 SW 17 26 9 14 1013.2 - 0.2
02/06:00am 10.6 6.9 10.0 96 0.3 SW 20 24 11 13 1012.8 1012.8 0.2
02/05:30am 10.7 10.7 9.9 95 0.4 CALM 0 0 0 0 1012.5 - 0.0
02/05:00am 10.7 10.1 9.0 89 0.9 S 2 9 1 5 1012.4 - 0.0
02/04:30am 11.0 9.4 8.9 87 1.1 S 7 11 4 6 1012.2 - 0.0
02/04:00am 11.3 9.4 9.0 86 1.2 SSW 9 17 5 9 1012.6 - 0.0
02/03:30am 11.5 9.6 8.9 84 1.3 SSW 9 13 5 7 1013.0 - 0.0
02/03:00am 12.0 9.9 8.3 78 1.8 SSW 9 13 5 7 1013.4 1013.4 0.0
02/02:30am 12.2 10.0 7.9 75 2.1 SSW 9 13 5 7 1013.7 - 0.0
02/02:00am 12.6 9.6 7.9 73 2.3 SW 13 20 7 11 1013.8 - 0.0
02/01:30am 13.0 9.6 7.7 70 2.6 SSW 15 20 8 11 1013.7 - 0.0
02/01:00am 13.3 9.2 7.7 69 2.8 SSW 19 26 10 14 1013.6 - 0.0
02/12:30am 13.5 9.1 7.5 67 3.0 SSW 20 32 11 17 1013.8 - 0.0
02/12:00am 14.0 8.1 7.3 64 3.3 SSW 28 37 15 20 1013.4 1013.4 0.0
 
Date/Time
EST
Temp
°C
App
Temp
°C
Dew
Point
Rel
Hum
%
Delta-T
°C
Wind Press
QNH
hPa
Press
MSL
hPa
Rain
since 9 am
mm
Dir
 
Spd
km/h
Gust
km/h
Spd
kts
Gust
kts
01/11:36pm 14.3 8.3 7.1 62 3.6 SSW 28 46 15 25 1013.4 - 0.0
01/11:30pm 14.1 8.9 7.2 63 3.4 SSW 24 35 13 19 1013.4 - 0.0
01/11:00pm 14.8 9.7 5.9 55 4.3 W 22 33 12 18 1012.7 - 0.0
01/10:48pm 14.6 8.2 5.4 54 4.4 W 28 46 15 25 1012.7 - 0.0
01/10:30pm 15.4 11.6 5.6 52 4.7 N 15 20 8 11 1011.6 - 0.0
01/10:00pm 15.6 12.6 6.1 53 4.6 NNE 11 15 6 8 1011.9 - 0.0
01/09:30pm 15.3 12.5 7.1 58 4.1 NNE 11 15 6 8 1012.1 - 0.0
01/09:00pm 15.3 13.0 7.3 59 4.0 NE 9 13 5 7 1012.2 1012.2 0.0
01/08:30pm 15.7 13.3 7.2 57 4.3 NE 9 13 5 7 1012.5 - 0.0
01/08:00pm 16.0 13.6 7.0 55 4.5 NE 9 11 5 6 1012.5 - 0.0
01/07:30pm 16.3 13.9 7.0 54 4.7 NE 9 11 5 6 1012.6 - 0.0
01/07:00pm 16.9 14.4 6.7 51 5.1 NE 9 11 5 6 1012.8 - 0.0
01/06:30pm 16.6 14.2 7.0 53 4.8 NE 9 11 5 6 1012.6 - 0.0
01/06:00pm 17.2 14.7 6.7 50 5.3 NNE 9 11 5 6 1012.6 1012.6 0.0
01/05:30pm 18.6 16.2 6.8 46 6.0 N 9 11 5 6 1012.8 - 0.0
01/05:00pm 19.8 16.8 5.8 40 7.0 N 11 15 6 8 1013.0 - 0.0
01/04:30pm 20.2 16.4 5.8 39 7.2 N 15 17 8 9 1012.7 - 0.0
01/04:00pm 20.7 16.4 5.1 36 7.7 NNW 17 22 9 12 1012.8 - 0.0
01/03:30pm 21.9 16.2 4.9 33 8.5 NNW 24 32 13 17 1013.1 - 0.0
01/03:00pm 22.1 16.8 5.1 33 8.5 NNW 22 35 12 19 1013.3 1013.3 0.0
01/02:30pm 22.3 17.6 5.3 33 8.6 NNW 19 26 10 14 1013.6 - 0.0
01/02:00pm 22.7 18.2 6.0 34 8.5 NW 19 28 10 15 1014.1 - 0.0
01/01:30pm 22.5 17.8 5.9 34 8.5 NNW 20 30 11 16 1014.6 - 0.0
01/01:00pm 22.1 17.8 7.1 38 7.8 N 19 32 10 17 1014.9 - 0.0
01/12:30pm 22.4 18.2 8.1 40 7.6 NW 20 26 11 14 1015.4 - 0.0
01/12:00pm 20.4 15.5 6.7 41 7.0 NNW 22 32 12 17 1016.3 1016.3 0.0
01/11:30am 20.6 16.7 8.6 46 6.4 NW 19 26 10 14 1016.9 - 0.0
01/11:00am 19.9 15.8 7.9 46 6.3 N 19 26 10 14 1017.3 - 0.0
01/10:30am 19.3 15.9 9.2 52 5.4 N 17 22 9 12 1017.6 - 0.0
01/10:00am 18.0 15.5 9.6 58 4.5 N 13 20 7 11 1018.0 - 0.0
01/09:30am 16.7 14.7 10.1 65 3.5 N 11 15 6 8 1018.1 - 0.0
01/09:00am 14.1 11.7 8.7 70 2.7 NE 11 15 6 8 1018.2 1018.2 0.0
01/08:30am 12.5 10.5 8.8 78 1.9 ENE 9 13 5 7 1018.0 - 0.0
01/08:00am 11.1 8.6 8.3 83 1.4 ENE 11 15 6 8 1018.0 - 0.0
01/07:30am 9.8 7.7 8.2 90 0.8 E 9 13 5 7 1018.2 - 0.0
01/07:00am 6.6 4.0 6.3 98 0.1 E 9 11 5 6 1018.0 - 0.0
01/06:30am 5.2 2.4 5.1 99 0.0 ENE 9 11 5 6 1017.9 - 0.0
01/06:00am 4.2 1.4 3.2 93 0.4 ENE 7 9 4 5 1017.8 1017.8 0.0
01/05:30am 5.6 2.5 5.5 99 0.0 ENE 11 13 6 7 1017.4 - 0.0
01/05:00am 5.3 2.8 5.0 98 0.1 NE 7 7 4 4 1017.3 - 0.0
01/04:30am 5.1 2.7 4.5 96 0.3 ENE 6 7 3 4 1017.0 - 0.0
01/04:00am 5.4 3.1 5.0 97 0.2 NE 6 7 3 4 1017.0 - 0.0
01/03:30am 5.5 3.3 5.4 99 0.0 ENE 6 7 3 4 1016.9 - 0.0
01/03:00am 5.1 3.9 4.7 97 0.2 CALM 0 6 0 3 1017.0 1017.0 0.0
01/02:30am 5.1 2.6 4.5 96 0.3 ENE 7 9 4 5 1016.8 - 0.0
01/02:00am 4.8 3.5 4.1 95 0.3 CALM 0 0 0 0 1017.1 - 0.0
01/01:30am 4.9 2.4 3.7 92 0.5 ENE 6 7 3 4 1017.3 - 0.0
01/01:00am 6.5 4.3 5.5 93 0.4 ENE 6 9 3 5 1017.3 - 0.0
01/12:30am 6.8 4.1 5.4 91 0.6 ENE 9 11 5 6 1017.5 - 0.0
01/12:00am 7.4 6.4 5.7 89 0.8 CALM 0 0 0 0 1017.6 1017.6 0.0
 
Date/Time
EST
Temp
°C
App
Temp
°C
Dew
Point
Rel
Hum
%
Delta-T
°C
Wind Press
QNH
hPa
Press
MSL
hPa
Rain
since 9 am
mm
Dir
 
Spd
km/h
Gust
km/h
Spd
kts
Gust
kts
31/11:30pm 7.7 6.8 6.2 90 0.7 CALM 0 0 0 0 1018.1 - 0.0
31/11:00pm 8.7 6.8 6.8 88 0.9 NNE 6 7 3 4 1018.2 - 0.0
31/10:30pm 9.3 7.5 7.1 86 1.0 NNE 6 7 3 4 1018.6 - 0.0
31/10:00pm 8.4 7.6 6.5 88 0.9 CALM 0 0 0 0 1018.9 - 0.0
31/09:30pm 8.8 7.9 6.1 83 1.3 CALM 0 0 0 0 1018.8 - 0.0
31/09:00pm 9.3 7.4 6.7 84 1.2 NNW 6 7 3 4 1018.9 1019.1 0.0
31/08:30pm 9.7 7.8 6.6 81 1.5 NNW 6 7 3 4 1018.7 - 0.0
31/08:00pm 10.9 8.6 5.9 71 2.3 ENE 7 11 4 6 1018.5 - 0.0
31/07:30pm 12.2 10.3 6.9 70 2.6 ENE 6 7 3 4 1018.4 - 0.0
31/07:00pm 12.8 11.0 7.0 68 2.8 NE 6 7 3 4 1018.2 - 0.0
31/06:30pm 15.0 13.2 7.3 60 3.8 E 6 7 3 4 1017.8 - 0.0
31/06:00pm 16.2 15.4 6.6 53 4.7 CALM 0 0 0 0 1017.8 1018.1 0.0
31/05:30pm 18.4 17.6 6.3 45 6.1 CALM 0 0 0 0 1017.6 - 0.0
31/05:00pm 20.1 19.6 7.8 45 6.4 CALM 0 0 0 0 1017.4 - 0.0
31/04:30pm 20.7 19.4 7.7 43 6.8 S 4 9 2 5 1017.2 - 0.0
31/04:00pm 20.7 18.6 6.6 40 7.2 SSW 7 13 4 7 1017.3 - 0.0
31/03:30pm 20.4 18.2 6.4 40 7.1 S 7 15 4 8 1017.6 - 0.0
31/03:00pm 20.3 18.4 6.6 41 7.0 W 6 11 3 6 1017.7 1018.0 0.0
31/02:30pm 21.1 18.5 7.7 42 7.0 WSW 11 17 6 9 1018.0 - 0.0
31/02:00pm 20.6 19.0 8.9 47 6.2 SE 7 13 4 7 1018.5 - 0.0
31/01:30pm 20.4 17.9 8.1 45 6.5 SW 11 15 6 8 1018.9 - 0.0
31/01:00pm 19.8 18.1 9.7 52 5.4 W 9 13 5 7 1019.4 - 0.0
31/12:30pm 20.0 18.5 9.3 50 5.7 WNW 7 11 4 6 1019.8 - 0.0

Other Formats:

Comma delimited format used in spreadsheet applications
http://www.bom.gov.au/fwo/IDN60801/IDN60801.95710.axf

JavaScript Object Notation format (JSON) in row-major order
http://www.bom.gov.au/fwo/IDN60801/IDN60801.95710.json